sensor_id;sensor_type;location;lat;lon;timestamp;pressure;altitude;pressure_sealevel;temperature;humidity
74065;BME280;62421;51.412;5.432;2022-12-15T00:01:35;100596.31;;;-8.44;96.49
74065;BME280;62421;51.412;5.432;2022-12-15T00:04:18;100594.59;;;-8.45;96.17
74065;BME280;62421;51.412;5.432;2022-12-15T00:07:02;100598.91;;;-8.49;96.09
74065;BME280;62421;51.412;5.432;2022-12-15T00:09:46;100586.75;;;-8.51;96.42
74065;BME280;62421;51.412;5.432;2022-12-15T00:12:30;100598.91;;;-8.50;96.32
74065;BME280;62421;51.412;5.432;2022-12-15T00:15:14;100596.28;;;-8.53;96.19
74065;BME280;62421;51.412;5.432;2022-12-15T00:18:03;100609.28;;;-8.56;96.21
74065;BME280;62421;51.412;5.432;2022-12-15T00:20:47;100607.56;;;-8.56;96.22
74065;BME280;62421;51.412;5.432;2022-12-15T00:23:31;100595.41;;;-8.61;96.26
74065;BME280;62421;51.412;5.432;2022-12-15T00:26:15;100600.63;;;-8.60;96.40
74065;BME280;62421;51.412;5.432;2022-12-15T00:28:59;100600.59;;;-8.61;96.28
74065;BME280;62421;51.412;5.432;2022-12-15T00:31:43;100613.63;;;-8.60;96.36
74065;BME280;62421;51.412;5.432;2022-12-15T00:34:27;100617.13;;;-8.58;96.43
74065;BME280;62421;51.412;5.432;2022-12-15T00:37:11;100615.38;;;-8.57;96.44
74065;BME280;62421;51.412;5.432;2022-12-15T00:39:55;100604.09;;;-8.58;96.34
74065;BME280;62421;51.412;5.432;2022-12-15T00:42:25;100609.28;;;-8.59;96.26
74065;BME280;62421;51.412;5.432;2022-12-15T00:44:53;100618.81;;;-8.61;96.19
74065;BME280;62421;51.412;5.432;2022-12-15T00:47:18;100608.41;;;-8.64;96.37
74065;BME280;62421;51.412;5.432;2022-12-15T00:49:43;100607.53;;;-8.63;96.60
74065;BME280;62421;51.412;5.432;2022-12-15T00:52:47;100623.13;;;-8.65;96.38
74065;BME280;62421;51.412;5.432;2022-12-15T00:55:31;100620.50;;;-8.70;96.51
74065;BME280;62421;51.412;5.432;2022-12-15T00:58:15;100617.91;;;-8.70;96.62
74065;BME280;62421;51.412;5.432;2022-12-15T01:01:05;100631.78;;;-8.69;96.44
74065;BME280;62421;51.412;5.432;2022-12-15T01:03:49;100622.28;;;-8.69;96.66
74065;BME280;62421;51.412;5.432;2022-12-15T01:06:33;100630.09;;;-8.69;96.68
74065;BME280;62421;51.412;5.432;2022-12-15T01:09:17;100622.28;;;-8.69;96.52
74065;BME280;62421;51.412;5.432;2022-12-15T01:12:01;100633.53;;;-8.70;96.64
74065;BME280;62421;51.412;5.432;2022-12-15T01:14:45;100629.19;;;-8.71;96.69
74065;BME280;62421;51.412;5.432;2022-12-15T01:17:29;100637.00;;;-8.72;96.80
74065;BME280;62421;51.412;5.432;2022-12-15T01:20:13;100626.59;;;-8.72;96.66
74065;BME280;62421;51.412;5.432;2022-12-15T01:22:45;100621.38;;;-8.72;96.84
74065;BME280;62421;51.412;5.432;2022-12-15T01:25:11;100619.63;;;-8.73;97.00
74065;BME280;62421;51.412;5.432;2022-12-15T01:27:36;100619.63;;;-8.73;96.90
74065;BME280;62421;51.412;5.432;2022-12-15T01:30:03;100615.28;;;-8.74;96.99
74065;BME280;62421;51.412;5.432;2022-12-15T01:32:29;100607.47;;;-8.77;97.09
74065;BME280;62421;51.412;5.432;2022-12-15T01:34:54;100614.41;;;-8.76;97.07
74065;BME280;62421;51.412;5.432;2022-12-15T01:37:19;100626.53;;;-8.80;97.15
74065;BME280;62421;51.412;5.432;2022-12-15T01:39:45;100630.84;;;-8.82;97.23
74065;BME280;62421;51.412;5.432;2022-12-15T01:42:33;100632.63;;;-8.81;97.14
74065;BME280;62421;51.412;5.432;2022-12-15T01:45:40;100628.28;;;-8.80;96.75
74065;BME280;62421;51.412;5.432;2022-12-15T01:48:12;100638.69;;;-8.80;96.89
74065;BME280;62421;51.412;5.432;2022-12-15T01:50:42;100635.19;;;-8.82;97.03
74065;BME280;62421;51.412;5.432;2022-12-15T01:53:10;100657.75;;;-8.84;97.12
74065;BME280;62421;51.412;5.432;2022-12-15T01:55:37;100649.94;;;-8.84;97.15
74065;BME280;62421;51.412;5.432;2022-12-15T01:58:06;100649.06;;;-8.87;97.09
74065;BME280;62421;51.412;5.432;2022-12-15T02:00:33;100645.59;;;-8.90;97.14
74065;BME280;62421;51.412;5.432;2022-12-15T02:03:00;100648.19;;;-8.90;97.26
74065;BME280;62421;51.412;5.432;2022-12-15T02:05:27;100648.16;;;-8.92;97.39
74065;BME280;62421;51.412;5.432;2022-12-15T02:07:54;100658.59;;;-8.90;97.37
74065;BME280;62421;51.412;5.432;2022-12-15T02:10:20;100655.09;;;-8.91;97.48
74065;BME280;62421;51.412;5.432;2022-12-15T02:15:48;100658.59;;;-8.90;97.33
74065;BME280;62421;51.412;5.432;2022-12-15T02:18:21;100667.25;;;-8.91;97.48
74065;BME280;62421;51.412;5.432;2022-12-15T02:29:37;100676.81;;;-8.90;97.73
74065;BME280;62421;51.412;5.432;2022-12-15T02:31:44;100673.31;;;-8.91;97.64
74065;BME280;62421;51.412;5.432;2022-12-15T02:34:39;100667.22;;;-8.93;97.77
74065;BME280;62421;51.412;5.432;2022-12-15T02:39:47;100690.66;;;-8.91;97.91
74065;BME280;62421;51.412;5.432;2022-12-15T02:42:13;100682.84;;;-8.91;97.74
74065;BME280;62421;51.412;5.432;2022-12-15T02:44:54;100694.16;;;-8.92;97.89
74065;BME280;62421;51.412;5.432;2022-12-15T02:47:31;100682.00;;;-8.92;97.73
74065;BME280;62421;51.412;5.432;2022-12-15T02:50:14;100682.00;;;-8.92;97.83
74065;BME280;62421;51.412;5.432;2022-12-15T03:01:08;100675.88;;;-8.98;97.79
74065;BME280;62421;51.412;5.432;2022-12-15T03:03:36;100681.09;;;-8.98;97.87
74065;BME280;62421;51.412;5.432;2022-12-15T03:06:02;100683.69;;;-8.98;97.79
74065;BME280;62421;51.412;5.432;2022-12-15T03:08:28;100689.72;;;-8.99;97.83
74065;BME280;62421;51.412;5.432;2022-12-15T03:10:55;100689.72;;;-8.99;97.83
74065;BME280;62421;51.412;5.432;2022-12-15T03:13:22;100687.16;;;-9.01;98.10
74065;BME280;62421;51.412;5.432;2022-12-15T03:15:47;100690.56;;;-9.03;98.00
74065;BME280;62421;51.412;5.432;2022-12-15T03:18:12;100698.38;;;-9.03;97.92
74065;BME280;62421;51.412;5.432;2022-12-15T03:20:38;100698.38;;;-9.03;98.15
74065;BME280;62421;51.412;5.432;2022-12-15T03:23:03;100714.88;;;-9.04;97.98
74065;BME280;62421;51.412;5.432;2022-12-15T03:25:29;100706.16;;;-9.07;98.00
74065;BME280;62421;51.412;5.432;2022-12-15T03:27:54;100706.19;;;-9.05;98.17
74065;BME280;62421;51.412;5.432;2022-12-15T03:30:20;100703.59;;;-9.03;98.23
74065;BME280;62421;51.412;5.432;2022-12-15T03:32:46;100696.66;;;-9.03;98.29
74065;BME280;62421;51.412;5.432;2022-12-15T03:35:11;100707.94;;;-9.02;98.30
74065;BME280;62421;51.412;5.432;2022-12-15T03:37:37;100711.41;;;-9.02;98.34
74065;BME280;62421;51.412;5.432;2022-12-15T03:40:03;100702.72;;;-9.04;98.36
74065;BME280;62421;51.412;5.432;2022-12-15T03:42:28;100702.72;;;-9.04;98.52
74065;BME280;62421;51.412;5.432;2022-12-15T03:45:22;100700.13;;;-9.04;98.28
74065;BME280;62421;51.412;5.432;2022-12-15T03:47:49;100698.38;;;-9.07;98.21
74065;BME280;62421;51.412;5.432;2022-12-15T03:50:16;100694.03;;;-9.08;98.49
74065;BME280;62421;51.412;5.432;2022-12-15T03:52:42;100691.44;;;-9.06;98.57
74065;BME280;62421;51.412;5.432;2022-12-15T03:55:08;100699.22;;;-9.06;98.66
74065;BME280;62421;51.412;5.432;2022-12-15T03:57:33;100689.69;;;-9.06;98.71
74065;BME280;62421;51.412;5.432;2022-12-15T03:59:59;100699.28;;;-9.03;98.81
74065;BME280;62421;51.412;5.432;2022-12-15T04:02:24;100701.88;;;-9.03;98.98
74065;BME280;62421;51.412;5.432;2022-12-15T04:04:50;100698.38;;;-9.03;98.80
74065;BME280;62421;51.412;5.432;2022-12-15T04:07:15;100698.38;;;-9.03;99.05
74065;BME280;62421;51.412;5.432;2022-12-15T04:09:40;100688.88;;;-9.00;99.46
74065;BME280;62421;51.412;5.432;2022-12-15T04:12:06;100701.03;;;-8.97;99.15
74065;BME280;62421;51.412;5.432;2022-12-15T04:14:33;100701.91;;;-8.98;98.98
74065;BME280;62421;51.412;5.432;2022-12-15T04:16:59;100694.94;;;-8.99;99.05
74065;BME280;62421;51.412;5.432;2022-12-15T04:19:24;100689.72;;;-8.99;99.14
74065;BME280;62421;51.412;5.432;2022-12-15T04:22:08;100696.69;;;-9.00;98.86
74065;BME280;62421;51.412;5.432;2022-12-15T04:24:33;100704.47;;;-9.00;98.96
74065;BME280;62421;51.412;5.432;2022-12-15T04:27:17;100702.75;;;-9.01;98.89
74065;BME280;62421;51.412;5.432;2022-12-15T04:30:01;100710.53;;;-9.02;98.89
74065;BME280;62421;51.412;5.432;2022-12-15T04:32:45;100716.59;;;-9.03;98.97
74065;BME280;62421;51.412;5.432;2022-12-15T04:35:31;100714.88;;;-9.04;99.01
74065;BME280;62421;51.412;5.432;2022-12-15T04:38:16;100723.53;;;-9.04;99.32
74065;BME280;62421;51.412;5.432;2022-12-15T04:41:00;100722.66;;;-9.04;99.18
74065;BME280;62421;51.412;5.432;2022-12-15T04:43:44;100717.47;;;-9.04;99.15
74065;BME280;62421;51.412;5.432;2022-12-15T04:46:28;100718.31;;;-9.06;99.27
74065;BME280;62421;51.412;5.432;2022-12-15T04:49:12;100713.09;;;-9.06;99.48
74065;BME280;62421;51.412;5.432;2022-12-15T04:51:56;100708.78;;;-9.05;99.59
74065;BME280;62421;51.412;5.432;2022-12-15T04:54:40;100716.59;;;-9.03;99.53
74065;BME280;62421;51.412;5.432;2022-12-15T04:57:24;100715.72;;;-9.04;99.52
74065;BME280;62421;51.412;5.432;2022-12-15T05:00:08;100715.75;;;-9.02;99.65
74065;BME280;62421;51.412;5.432;2022-12-15T05:02:52;100716.59;;;-9.02;99.51
74065;BME280;62421;51.412;5.432;2022-12-15T05:05:36;100705.34;;;-9.02;99.75
74065;BME280;62421;51.412;5.432;2022-12-15T05:08:20;100727.91;;;-9.00;100.00
74065;BME280;62421;51.412;5.432;2022-12-15T05:11:04;100724.44;;;-8.97;99.99
74065;BME280;62421;51.412;5.432;2022-12-15T05:13:48;100725.34;;;-8.97;99.92
74065;BME280;62421;51.412;5.432;2022-12-15T05:16:32;100727.94;;;-8.98;99.84
74065;BME280;62421;51.412;5.432;2022-12-15T05:19:16;100730.50;;;-9.00;99.93
74065;BME280;62421;51.412;5.432;2022-12-15T05:22:00;100729.63;;;-9.00;99.87
74065;BME280;62421;51.412;5.432;2022-12-15T05:24:44;100728.75;;;-9.04;99.74
74065;BME280;62421;51.412;5.432;2022-12-15T05:27:28;100747.81;;;-9.03;99.76
74065;BME280;62421;51.412;5.432;2022-12-15T05:30:12;100745.19;;;-9.07;99.82
74065;BME280;62421;51.412;5.432;2022-12-15T05:32:56;100746.06;;;-9.06;99.86
74065;BME280;62421;51.412;5.432;2022-12-15T05:35:21;100752.13;;;-9.06;100.00
74065;BME280;62421;51.412;5.432;2022-12-15T05:37:46;100761.69;;;-9.04;100.00
74065;BME280;62421;51.412;5.432;2022-12-15T05:40:12;100760.84;;;-9.05;100.00
74065;BME280;62421;51.412;5.432;2022-12-15T05:42:37;100758.22;;;-9.05;100.00
74065;BME280;62421;51.412;5.432;2022-12-15T05:45:03;100759.94;;;-9.06;100.00
74065;BME280;62421;51.412;5.432;2022-12-15T05:47:29;100758.22;;;-9.07;100.00
74065;BME280;62421;51.412;5.432;2022-12-15T05:49:54;100766.88;;;-9.06;100.00
74065;BME280;62421;51.412;5.432;2022-12-15T05:52:19;100759.94;;;-9.06;100.00
74065;BME280;62421;51.412;5.432;2022-12-15T05:54:45;100763.41;;;-9.07;100.00
74065;BME280;62421;51.412;5.432;2022-12-15T05:57:10;100759.06;;;-9.06;100.00
74065;BME280;62421;51.412;5.432;2022-12-15T05:59:35;100758.22;;;-9.07;100.00
74065;BME280;62421;51.412;5.432;2022-12-15T06:02:01;100761.69;;;-9.06;100.00
74065;BME280;62421;51.412;5.432;2022-12-15T06:04:26;100757.34;;;-9.06;100.00
74065;BME280;62421;51.412;5.432;2022-12-15T06:06:51;100753.03;;;-9.05;100.00
74065;BME280;62421;51.412;5.432;2022-12-15T06:09:16;100761.69;;;-9.06;100.00
74065;BME280;62421;51.412;5.432;2022-12-15T06:11:42;100762.53;;;-9.06;100.00
74065;BME280;62421;51.412;5.432;2022-12-15T06:14:08;100754.72;;;-9.06;100.00
74065;BME280;62421;51.412;5.432;2022-12-15T06:16:33;100757.31;;;-9.09;100.00
74065;BME280;62421;51.412;5.432;2022-12-15T06:19:00;100751.25;;;-9.09;100.00
74065;BME280;62421;51.412;5.432;2022-12-15T06:21:35;100755.59;;;-9.10;100.00
74065;BME280;62421;51.412;5.432;2022-12-15T06:24:02;100772.03;;;-9.11;100.00
74065;BME280;62421;51.412;5.432;2022-12-15T06:26:30;100792.88;;;-9.09;100.00
74065;BME280;62421;51.412;5.432;2022-12-15T06:28:57;100785.09;;;-9.08;100.00
74065;BME280;62421;51.412;5.432;2022-12-15T06:31:24;100783.38;;;-9.04;100.00
74065;BME280;62421;51.412;5.432;2022-12-15T06:33:54;100776.44;;;-9.02;100.00
74065;BME280;62421;51.412;5.432;2022-12-15T06:36:21;100779.91;;;-9.01;100.00
74065;BME280;62421;51.412;5.432;2022-12-15T06:38:48;100776.47;;;-9.00;100.00
74065;BME280;62421;51.412;5.432;2022-12-15T06:41:16;100778.22;;;-9.01;100.00
74065;BME280;62421;51.412;5.432;2022-12-15T06:43:42;100778.22;;;-9.01;100.00
74065;BME280;62421;51.412;5.432;2022-12-15T06:46:08;100773.00;;;-8.99;100.00
74065;BME280;62421;51.412;5.432;2022-12-15T06:48:34;100774.75;;;-9.00;100.00
74065;BME280;62421;51.412;5.432;2022-12-15T06:51:04;100772.13;;;-9.00;100.00
74065;BME280;62421;51.412;5.432;2022-12-15T06:53:30;100783.41;;;-9.01;100.00
74065;BME280;62421;51.412;5.432;2022-12-15T06:56:01;100779.94;;;-9.03;100.00
74065;BME280;62421;51.412;5.432;2022-12-15T06:58:27;100779.03;;;-9.03;100.00
74065;BME280;62421;51.412;5.432;2022-12-15T07:00:52;100784.25;;;-9.03;100.00
74065;BME280;62421;51.412;5.432;2022-12-15T07:03:18;100789.44;;;-9.05;100.00
74065;BME280;62421;51.412;5.432;2022-12-15T07:05:44;100800.69;;;-9.06;100.00
74065;BME280;62421;51.412;5.432;2022-12-15T07:08:14;100795.50;;;-9.08;100.00
74065;BME280;62421;51.412;5.432;2022-12-15T07:10:41;100801.56;;;-9.09;100.00
74065;BME280;62421;51.412;5.432;2022-12-15T07:13:09;100788.53;;;-9.09;100.00
74065;BME280;62421;51.412;5.432;2022-12-15T07:15:34;100788.56;;;-9.07;100.00
74065;BME280;62421;51.412;5.432;2022-12-15T07:18:00;100793.75;;;-9.09;100.00
74065;BME280;62421;51.412;5.432;2022-12-15T07:20:25;100792.00;;;-9.10;100.00
74065;BME280;62421;51.412;5.432;2022-12-15T07:22:51;100790.25;;;-9.11;100.00
74065;BME280;62421;51.412;5.432;2022-12-15T07:25:17;100798.06;;;-9.11;100.00
74065;BME280;62421;51.412;5.432;2022-12-15T07:27:43;100799.81;;;-9.10;100.00
74065;BME280;62421;51.412;5.432;2022-12-15T07:30:09;100794.59;;;-9.11;100.00
74065;BME280;62421;51.412;5.432;2022-12-15T07:32:34;100805.00;;;-9.11;100.00
74065;BME280;62421;51.412;5.432;2022-12-15T07:35:00;100805.00;;;-9.11;100.00
74065;BME280;62421;51.412;5.432;2022-12-15T07:37:28;100801.53;;;-9.10;100.00
74065;BME280;62421;51.412;5.432;2022-12-15T07:39:53;100798.94;;;-9.09;100.00
74065;BME280;62421;51.412;5.432;2022-12-15T07:42:19;100809.34;;;-9.09;100.00
74065;BME280;62421;51.412;5.432;2022-12-15T07:44:44;100809.34;;;-9.09;100.00
74065;BME280;62421;51.412;5.432;2022-12-15T07:47:10;100813.69;;;-9.09;100.00
74065;BME280;62421;51.412;5.432;2022-12-15T07:49:35;100810.22;;;-9.11;100.00
74065;BME280;62421;51.412;5.432;2022-12-15T07:52:01;100815.44;;;-9.10;100.00
74065;BME280;62421;51.412;5.432;2022-12-15T07:54:26;100825.00;;;-9.07;100.00
74065;BME280;62421;51.412;5.432;2022-12-15T07:56:53;100821.53;;;-9.04;100.00
74065;BME280;62421;51.412;5.432;2022-12-15T07:59:18;100819.00;;;-8.98;100.00
74065;BME280;62421;51.412;5.432;2022-12-15T08:01:44;100819.88;;;-8.95;100.00
74065;BME280;62421;51.412;5.432;2022-12-15T08:04:09;100814.69;;;-8.93;100.00
74065;BME280;62421;51.412;5.432;2022-12-15T08:06:35;100819.91;;;-8.92;100.00
74065;BME280;62421;51.412;5.432;2022-12-15T08:09:00;100819.06;;;-8.91;100.00
74065;BME280;62421;51.412;5.432;2022-12-15T08:11:25;100823.44;;;-8.88;100.00
74065;BME280;62421;51.412;5.432;2022-12-15T08:13:51;100830.38;;;-8.87;100.00
74065;BME280;62421;51.412;5.432;2022-12-15T08:16:17;100836.50;;;-8.83;100.00
74065;BME280;62421;51.412;5.432;2022-12-15T08:18:42;100834.78;;;-8.81;100.00
74065;BME280;62421;51.412;5.432;2022-12-15T08:21:09;100830.44;;;-8.79;100.00
74065;BME280;62421;51.412;5.432;2022-12-15T08:23:36;100833.94;;;-8.76;100.00
74065;BME280;62421;51.412;5.432;2022-12-15T08:26:07;100822.69;;;-8.75;100.00
74065;BME280;62421;51.412;5.432;2022-12-15T08:28:34;100827.00;;;-8.74;100.00
74065;BME280;62421;51.412;5.432;2022-12-15T08:31:15;100823.56;;;-8.70;100.00
74065;BME280;62421;51.412;5.432;2022-12-15T08:33:41;100824.50;;;-8.64;100.00
74065;BME280;62421;51.412;5.432;2022-12-15T08:36:08;100815.84;;;-8.62;100.00
74065;BME280;62421;51.412;5.432;2022-12-15T08:38:36;100828.03;;;-8.58;100.00
74065;BME280;62421;51.412;5.432;2022-12-15T08:41:29;100839.31;;;-8.56;100.00
74065;BME280;62421;51.412;5.432;2022-12-15T08:43:56;100837.59;;;-8.54;100.00
74065;BME280;62421;51.412;5.432;2022-12-15T08:46:32;100843.69;;;-8.50;100.00
74065;BME280;62421;51.412;5.432;2022-12-15T08:48:58;100842.00;;;-8.47;100.00
74065;BME280;62421;51.412;5.432;2022-12-15T08:51:25;100838.53;;;-8.44;100.00
74065;BME280;62421;51.412;5.432;2022-12-15T08:53:53;100855.91;;;-8.40;100.00
74065;BME280;62421;51.412;5.432;2022-12-15T08:56:20;100847.22;;;-8.37;100.00
74065;BME280;62421;51.412;5.432;2022-12-15T08:58:47;100856.78;;;-8.35;100.00
74065;BME280;62421;51.412;5.432;2022-12-15T09:01:16;100855.06;;;-8.33;100.00
74065;BME280;62421;51.412;5.432;2022-12-15T09:03:42;100856.81;;;-8.30;100.00
74065;BME280;62421;51.412;5.432;2022-12-15T09:06:12;100863.81;;;-8.25;100.00
74065;BME280;62421;51.412;5.432;2022-12-15T09:08:38;100874.28;;;-8.21;100.00
74065;BME280;62421;51.412;5.432;2022-12-15T09:11:03;100876.91;;;-8.17;100.00
74065;BME280;62421;51.412;5.432;2022-12-15T09:13:32;100888.19;;;-8.13;100.00
74065;BME280;62421;51.412;5.432;2022-12-15T09:16:03;100881.28;;;-8.10;100.00
74065;BME280;62421;51.412;5.432;2022-12-15T09:18:32;100886.50;;;-8.07;100.00
74065;BME280;62421;51.412;5.432;2022-12-15T09:21:05;100894.38;;;-8.02;100.00
74065;BME280;62421;51.412;5.432;2022-12-15T09:23:31;100885.69;;;-7.98;100.00
74065;BME280;62421;51.412;5.432;2022-12-15T09:26:01;100888.34;;;-7.95;100.00
74065;BME280;62421;51.412;5.432;2022-12-15T09:28:28;100884.88;;;-7.91;100.00
74065;BME280;62421;51.412;5.432;2022-12-15T09:31:00;100884.91;;;-7.88;100.00
74065;BME280;62421;51.412;5.432;2022-12-15T09:33:25;100893.63;;;-7.83;100.00
74065;BME280;62421;51.412;5.432;2022-12-15T09:35:51;100887.56;;;-7.78;100.00
74065;BME280;62421;51.412;5.432;2022-12-15T09:38:16;100899.75;;;-7.73;100.00
74065;BME280;62421;51.412;5.432;2022-12-15T09:40:42;100896.31;;;-7.69;100.00
74065;BME280;62421;51.412;5.432;2022-12-15T09:43:10;100903.28;;;-7.65;100.00
74065;BME280;62421;51.412;5.432;2022-12-15T09:45:42;100905.91;;;-7.60;100.00
74065;BME280;62421;51.412;5.432;2022-12-15T09:48:14;100929.41;;;-7.55;100.00
74065;BME280;62421;51.412;5.432;2022-12-15T09:50:44;100908.56;;;-7.52;100.00
74065;BME280;62421;51.412;5.432;2022-12-15T09:53:13;100906.84;;;-7.47;100.00
74065;BME280;62421;51.412;5.432;2022-12-15T09:55:42;100910.34;;;-7.41;100.00
74065;BME280;62421;51.412;5.432;2022-12-15T09:58:41;100923.44;;;-7.34;100.00
74065;BME280;62421;51.412;5.432;2022-12-15T10:01:34;100917.38;;;-7.26;100.00
74065;BME280;62421;51.412;5.432;2022-12-15T10:06:55;100919.19;;;-7.09;100.00
74065;BME280;62421;51.412;5.432;2022-12-15T10:09:26;100918.31;;;-7.04;100.00
74065;BME280;62421;51.412;5.432;2022-12-15T10:12:05;100916.59;;;-6.95;100.00
74065;BME280;62421;51.412;5.432;2022-12-15T10:14:39;100911.41;;;-6.86;100.00
74065;BME280;62421;51.412;5.432;2022-12-15T10:22:38;100905.34;;;-6.73;100.00
74065;BME280;62421;51.412;5.432;2022-12-15T10:25:19;100894.91;;;-6.68;100.00
74065;BME280;62421;51.412;5.432;2022-12-15T10:30:28;100906.22;;;-6.59;100.00
74065;BME280;62421;51.412;5.432;2022-12-15T10:33:14;100919.28;;;-6.52;100.00
74065;BME280;62421;51.412;5.432;2022-12-15T10:35:43;100927.16;;;-6.45;100.00
74065;BME280;62421;51.412;5.432;2022-12-15T10:40:53;100912.31;;;-6.30;100.00
74065;BME280;62421;51.412;5.432;2022-12-15T10:43:29;100915.84;;;-6.24;100.00
74065;BME280;62421;51.412;5.432;2022-12-15T10:48:43;100927.16;;;-6.06;100.00
74065;BME280;62421;51.412;5.432;2022-12-15T10:51:19;100931.50;;;-5.99;100.00
74065;BME280;62421;51.412;5.432;2022-12-15T10:56:19;100921.00;;;-5.90;100.00
74065;BME280;62421;51.412;5.432;2022-12-15T10:58:49;100924.47;;;-5.80;100.00
74065;BME280;62421;51.412;5.432;2022-12-15T11:01:19;100916.59;;;-5.71;100.00
74065;BME280;62421;51.412;5.432;2022-12-15T11:03:44;100913.97;;;-5.65;100.00
74065;BME280;62421;51.412;5.432;2022-12-15T11:06:17;100915.69;;;-5.58;100.00
74065;BME280;62421;51.412;5.432;2022-12-15T11:08:44;100914.81;;;-5.53;100.00
74065;BME280;62421;51.412;5.432;2022-12-15T11:11:28;100912.19;;;-5.52;100.00
74065;BME280;62421;51.412;5.432;2022-12-15T11:14:21;100917.41;;;-5.47;100.00
74065;BME280;62421;51.412;5.432;2022-12-15T11:16:54;100916.53;;;-5.43;100.00
74065;BME280;62421;51.412;5.432;2022-12-15T11:19:27;100911.28;;;-5.40;100.00
74065;BME280;62421;51.412;5.432;2022-12-15T11:22:02;100918.25;;;-5.35;100.00
74065;BME280;62421;51.412;5.432;2022-12-15T11:24:48;100908.63;;;-5.31;100.00
74065;BME280;62421;51.412;5.432;2022-12-15T11:27:27;100916.47;;;-5.25;100.00
74065;BME280;62421;51.412;5.432;2022-12-15T11:30:01;100905.94;;;-5.14;100.00
74065;BME280;62421;51.412;5.432;2022-12-15T11:32:31;100910.28;;;-5.05;100.00
74065;BME280;62421;51.412;5.432;2022-12-15T11:34:57;100896.25;;;-4.98;100.00
74065;BME280;62421;51.412;5.432;2022-12-15T11:37:40;100904.09;;;-4.95;100.00
74065;BME280;62421;51.412;5.432;2022-12-15T11:46:21;100890.00;;;-4.71;100.00
74065;BME280;62421;51.412;5.432;2022-12-15T12:00:35;100880.19;;;-4.44;100.00
74065;BME280;62421;51.412;5.432;2022-12-15T12:03:24;100886.28;;;-4.44;100.00
74065;BME280;62421;51.412;5.432;2022-12-15T12:06:09;100881.94;;;-4.45;100.00
74065;BME280;62421;51.412;5.432;2022-12-15T12:11:15;100880.13;;;-4.41;100.00
74065;BME280;62421;51.412;5.432;2022-12-15T12:14:03;100870.50;;;-4.38;100.00
74065;BME280;62421;51.412;5.432;2022-12-15T12:16:45;100877.50;;;-4.38;100.00
74065;BME280;62421;51.412;5.432;2022-12-15T12:19:17;100874.03;;;-4.39;100.00
74065;BME280;62421;51.412;5.432;2022-12-15T12:21:48;100868.75;;;-4.36;100.00
74065;BME280;62421;51.412;5.432;2022-12-15T12:24:27;100870.47;;;-4.35;100.00
74065;BME280;62421;51.412;5.432;2022-12-15T12:34:44;100854.69;;;-4.27;100.00
74065;BME280;62421;51.412;5.432;2022-12-15T12:39:58;100859.03;;;-4.21;100.00
74065;BME280;62421;51.412;5.432;2022-12-15T12:42:50;100860.75;;;-4.20;100.00
74065;BME280;62421;51.412;5.432;2022-12-15T12:45:18;100858.06;;;-4.16;100.00
74065;BME280;62421;51.412;5.432;2022-12-15T12:47:49;100853.69;;;-4.15;100.00
74065;BME280;62421;51.412;5.432;2022-12-15T12:50:19;100848.44;;;-4.12;100.00
74065;BME280;62421;51.412;5.432;2022-12-15T12:52:53;100841.47;;;-4.15;100.00
74065;BME280;62421;51.412;5.432;2022-12-15T12:55:24;100841.44;;;-4.13;100.00
74065;BME280;62421;51.412;5.432;2022-12-15T12:57:51;100837.09;;;-4.16;100.00
74065;BME280;62421;51.412;5.432;2022-12-15T13:00:27;100832.75;;;-4.17;100.00
74065;BME280;62421;51.412;5.432;2022-12-15T13:03:13;100841.47;;;-4.18;100.00
74065;BME280;62421;51.412;5.432;2022-12-15T13:05:41;100832.69;;;-4.14;100.00
74065;BME280;62421;51.412;5.432;2022-12-15T13:10:38;100834.50;;;-4.17;100.00
74065;BME280;62421;51.412;5.432;2022-12-15T13:15:41;100822.25;;;-4.17;100.00
74065;BME280;62421;51.412;5.432;2022-12-15T13:20:42;100824.88;;;-4.20;100.00
74065;BME280;62421;51.412;5.432;2022-12-15T13:23:33;100821.34;;;-4.16;100.00
74065;BME280;62421;51.412;5.432;2022-12-15T13:28:40;100816.91;;;-4.09;100.00
74065;BME280;62421;51.412;5.432;2022-12-15T13:44:34;100799.34;;;-3.98;100.00
74065;BME280;62421;51.412;5.432;2022-12-15T13:47:20;100805.44;;;-3.97;100.00
74065;BME280;62421;51.412;5.432;2022-12-15T13:50:11;100801.84;;;-3.92;100.00
74065;BME280;62421;51.412;5.432;2022-12-15T13:52:47;100797.50;;;-3.93;100.00
74065;BME280;62421;51.412;5.432;2022-12-15T13:55:21;100790.53;;;-3.94;100.00
74065;BME280;62421;51.412;5.432;2022-12-15T13:57:55;100789.69;;;-3.97;100.00
74065;BME280;62421;51.412;5.432;2022-12-15T14:00:22;100787.06;;;-3.97;100.00
74065;BME280;62421;51.412;5.432;2022-12-15T14:02:48;100795.81;;;-3.95;100.00
74065;BME280;62421;51.412;5.432;2022-12-15T14:05:14;100789.66;;;-3.94;100.00
74065;BME280;62421;51.412;5.432;2022-12-15T14:07:44;100789.59;;;-3.89;100.00
74065;BME280;62421;51.412;5.432;2022-12-15T14:12:50;100770.13;;;-3.70;100.00
74065;BME280;62421;51.412;5.432;2022-12-15T14:15:26;100781.31;;;-3.57;100.00
74065;BME280;62421;51.412;5.432;2022-12-15T14:17:54;100769.97;;;-3.56;100.00
74065;BME280;62421;51.412;5.432;2022-12-15T14:20:23;100772.59;;;-3.59;100.00
74065;BME280;62421;51.412;5.432;2022-12-15T14:22:49;100766.56;;;-3.64;100.00
74065;BME280;62421;51.412;5.432;2022-12-15T14:25:20;100764.63;;;-3.52;100.00
74065;BME280;62421;51.412;5.432;2022-12-15T14:27:46;100768.03;;;-3.43;100.00
74065;BME280;62421;51.412;5.432;2022-12-15T14:30:27;100765.41;;;-3.42;100.00
74065;BME280;62421;51.412;5.432;2022-12-15T14:33:06;100768.06;;;-3.46;100.00
74065;BME280;62421;51.412;5.432;2022-12-15T14:35:56;100768.03;;;-3.43;100.00
74065;BME280;62421;51.412;5.432;2022-12-15T14:38:24;100763.75;;;-3.51;100.00
74065;BME280;62421;51.412;5.432;2022-12-15T14:40:53;100768.19;;;-3.54;100.00
74065;BME280;62421;51.412;5.432;2022-12-15T14:43:26;100759.34;;;-3.48;100.00
74065;BME280;62421;51.412;5.432;2022-12-15T14:45:55;100757.53;;;-3.43;100.00
74065;BME280;62421;51.412;5.432;2022-12-15T14:48:33;100757.59;;;-3.48;100.00